Terminal Aerodrome Forecast
Issued by NWS New Orleans/Baton Rouge, LA

Home | Current Version | Previous Version | Text Only | Print | Product List | Glossary On
Versions: 1 2 3 4 5 6 7 8 9 10 11 12 13 14
000
FTUS44 KLIX 211123
TAFNEW
TAF
KNEW 211123Z 2112/2212 07008KT P6SM SKC
     FM211800 10004KT P6SM BKN025 BKN130
     FM220500 02006KT P6SM BKN050 BKN090
     FM220800 02010KT P6SM BKN080 BKN110=

USA.gov is the U.S. government's official web portal to all federal, state and local government web resources and services.